Time;durP1;ratioP1;P1;durP2;ratioP2;P2;SDS_P1;SDS_P2;PMS_P1;PMS_P2;Temp;Humidity;BMP_temperature;BMP_pressure;BME280_temperature;BME280_humidity;BME280_pressure;Samples;Min_cycle;Max_cycle;Signal;HPM_P1;HPM_P2
2022/02/05 00:01:54;;;;;;;5.77;4.13;;;3.60;99.90;;;;;;6105180;23;20028;-86
2022/02/05 00:04:20;;;;;;;10.60;4.05;;;3.60;99.90;;;;;;6072786;23;20010;-87
2022/02/05 00:06:51;;;;;;;8.32;3.35;;;3.60;99.90;;;;;;6073898;23;20459;-87
2022/02/05 00:09:33;;;;;;;8.80;3.15;;;3.60;99.90;;;;;;6076259;23;20140;-87
2022/02/05 00:38:50;;;;;;;5.15;4.03;;;3.30;99.90;;;;;;6102875;23;20017;-87
2022/02/05 00:43:39;;;;;;;5.63;2.42;;;3.30;99.90;;;;;;6097764;23;20005;-87
2022/02/05 00:46:07;;;;;;;5.47;2.85;;;3.20;99.90;;;;;;6073600;23;20033;-87
2022/02/05 00:48:32;;;;;;;5.20;2.42;;;3.20;99.90;;;;;;6074478;23;20390;-87
2022/02/05 00:51:10;;;;;;;19.17;3.65;;;3.10;99.90;;;;;;6072628;23;20029;-87
2022/02/05 00:53:38;;;;;;;4.65;2.38;;;3.10;99.90;;;;;;6075819;23;20136;-87
2022/02/05 00:56:14;;;;;;;9.27;4.10;;;3.20;99.90;;;;;;6073620;23;20092;-87
2022/02/05 00:58:40;;;;;;;10.07;4.75;;;3.20;99.90;;;;;;6078169;23;20020;-87
2022/02/05 01:01:06;;;;;;;4.93;2.17;;;3.20;99.90;;;;;;6073172;23;20390;-87
2022/02/05 01:03:33;;;;;;;12.00;4.28;;;3.10;99.90;;;;;;6068424;23;20017;-87
2022/02/05 01:06:00;;;;;;;8.90;4.68;;;3.20;99.90;;;;;;6097205;23;20025;-87
2022/02/05 01:08:26;;;;;;;7.53;4.07;;;3.10;99.90;;;;;;6072045;23;20502;-88
2022/02/05 01:10:52;;;;;;;5.22;2.78;;;3.10;99.90;;;;;;6072016;23;20028;-87
2022/02/05 01:13:17;;;;;;;3.95;2.28;;;3.10;99.90;;;;;;6072608;23;20081;-86
2022/02/05 01:16:12;;;;;;;12.23;3.95;;;3.00;99.90;;;;;;6072781;23;20363;-87
2022/02/05 01:18:29;;;;;;;8.38;4.15;;;3.00;99.90;;;;;;6105576;23;20347;-87
2022/02/05 01:26:11;;;;;;;5.03;3.17;;;3.00;99.90;;;;;;6096936;23;20032;-86
2022/02/05 01:28:38;;;;;;;4.88;2.58;;;2.80;99.90;;;;;;6101841;23;20011;-86
2022/02/05 01:31:05;;;;;;;7.30;2.63;;;2.90;99.90;;;;;;6095557;23;20014;-87
2022/02/05 01:39:24;;;;;;;2.70;1.63;;;2.80;99.90;;;;;;6096556;23;20068;-87
2022/02/05 01:50:25;;;;;;;4.50;2.55;;;2.70;99.90;;;;;;6104341;23;20021;-87
2022/02/05 01:53:10;;;;;;;7.05;1.77;;;2.70;99.90;;;;;;6109928;23;20076;-87
2022/02/05 02:14:25;;;;;;;4.40;2.65;;;2.60;99.90;;;;;;6097522;23;20033;-87
2022/02/05 02:27:15;;;;;;;7.38;2.92;;;2.60;99.90;;;;;;6096508;23;20021;-87
2022/02/05 02:29:59;;;;;;;5.68;3.63;;;2.50;99.90;;;;;;6082190;23;20013;-87
2022/02/05 02:32:25;;;;;;;6.32;2.15;;;2.70;99.90;;;;;;6078408;23;20032;-87
2022/02/05 02:34:55;;;;;;;11.02;3.25;;;2.60;99.90;;;;;;6072965;23;20169;-87
2022/02/05 02:37:29;;;;;;;6.55;2.90;;;2.60;99.90;;;;;;6074981;23;20014;-87
2022/02/05 02:42:21;;;;;;;14.98;4.15;;;2.50;99.90;;;;;;6097375;23;20014;-86
2022/02/05 02:44:47;;;;;;;7.88;3.65;;;2.60;99.90;;;;;;6073470;23;20066;-87
2022/02/05 02:47:14;;;;;;;9.32;3.95;;;2.60;99.90;;;;;;6075724;23;20017;-87
2022/02/05 02:49:53;;;;;;;5.55;2.53;;;2.60;99.90;;;;;;6098917;23;20021;-87
2022/02/05 02:57:54;;;;;;;6.38;2.85;;;2.40;99.90;;;;;;6106968;23;20104;-87
2022/02/05 03:00:20;;;;;;;6.78;2.88;;;2.60;99.90;;;;;;6075882;23;20025;-86
2022/02/05 03:02:45;;;;;;;10.77;4.43;;;2.50;99.90;;;;;;6073009;23;20013;-86
2022/02/05 03:05:11;;;;;;;10.55;3.92;;;2.50;99.90;;;;;;6100100;23;20017;-87
2022/02/05 03:07:37;;;;;;;6.93;2.53;;;2.50;99.90;;;;;;6075325;23;20028;-86
2022/02/05 03:10:03;;;;;;;6.15;2.90;;;2.30;99.90;;;;;;6072126;23;20065;-87
2022/02/05 03:12:29;;;;;;;8.68;3.05;;;2.50;99.90;;;;;;6074791;23;20450;-87
2022/02/05 03:14:54;;;;;;;12.00;3.63;;;2.50;99.90;;;;;;6071791;23;20025;-87
2022/02/05 03:17:25;;;;;;;7.85;3.13;;;2.60;99.90;;;;;;6071065;23;20013;-86
2022/02/05 03:19:52;;;;;;;6.40;3.03;;;2.60;99.90;;;;;;6075084;23;20013;-87
2022/02/05 03:22:19;;;;;;;3.63;1.77;;;2.60;99.90;;;;;;6074039;23;20092;-87
2022/02/05 03:24:45;;;;;;;7.85;2.92;;;2.60;99.90;;;;;;6063271;23;20021;-87
2022/02/05 03:27:12;;;;;;;5.60;2.50;;;2.50;99.90;;;;;;6075012;23;20017;-87
2022/02/05 03:29:43;;;;;;;5.15;2.63;;;2.60;99.90;;;;;;6074709;23;20005;-87
2022/02/05 03:32:09;;;;;;;6.40;2.47;;;2.60;99.90;;;;;;6096657;23;20021;-87
2022/02/05 03:34:35;;;;;;;7.40;2.53;;;2.60;99.90;;;;;;6073359;23;20450;-87
2022/02/05 03:37:01;;;;;;;5.68;1.73;;;2.60;99.90;;;;;;6074132;23;20014;-87
2022/02/05 03:39:26;;;;;;;4.22;2.33;;;2.60;99.90;;;;;;6072648;23;20013;-87
2022/02/05 03:41:52;;;;;;;7.60;1.90;;;2.50;99.90;;;;;;6074489;23;20420;-86
2022/02/05 03:44:18;;;;;;;7.15;2.15;;;2.50;99.90;;;;;;6059579;23;20408;-87
2022/02/05 03:46:43;;;;;;;8.98;2.88;;;2.60;99.90;;;;;;6073669;23;20018;-87
2022/02/05 03:49:11;;;;;;;2.30;1.63;;;2.50;99.90;;;;;;6069804;23;20100;-87
2022/02/05 03:51:37;;;;;;;5.55;1.50;;;2.50;99.90;;;;;;6073156;23;20077;-87
2022/02/05 03:54:03;;;;;;;4.90;2.35;;;2.50;99.90;;;;;;6072438;23;20443;-87
2022/02/05 03:56:29;;;;;;;2.60;1.52;;;2.60;99.90;;;;;;6071898;23;20009;-87
2022/02/05 03:58:54;;;;;;;5.07;1.88;;;2.60;99.90;;;;;;6072460;23;20506;-87
2022/02/05 04:01:20;;;;;;;3.17;1.77;;;2.60;99.90;;;;;;6072630;23;20386;-87
2022/02/05 04:03:45;;;;;;;6.13;2.45;;;2.60;99.90;;;;;;6073700;23;20017;-86
2022/02/05 04:06:11;;;;;;;6.15;2.47;;;2.60;99.90;;;;;;6072483;23;20036;-87
2022/02/05 04:08:37;;;;;;;8.27;2.47;;;2.70;99.90;;;;;;6073140;23;20022;-87
2022/02/05 04:11:08;;;;;;;10.73;3.13;;;2.70;99.90;;;;;;6069958;23;20036;-87
2022/02/05 04:16:24;;;;;;;6.32;2.28;;;2.80;99.90;;;;;;6103655;23;20020;-87
2022/02/05 04:18:51;;;;;;;2.92;2.03;;;2.70;99.90;;;;;;6056029;23;20018;-87
2022/02/05 04:21:16;;;;;;;4.53;2.08;;;2.70;99.90;;;;;;6073405;23;20009;-87
2022/02/05 04:23:42;;;;;;;5.05;2.25;;;2.80;99.90;;;;;;6071811;23;20019;-87
2022/02/05 04:26:08;;;;;;;10.55;2.60;;;2.80;99.90;;;;;;6069756;23;20022;-87
2022/02/05 04:28:34;;;;;;;6.38;2.03;;;2.70;99.90;;;;;;6096495;23;20317;-87
2022/02/05 04:31:00;;;;;;;12.95;2.83;;;2.80;99.90;;;;;;6072844;23;20037;-87
2022/02/05 04:33:28;;;;;;;6.15;2.33;;;2.90;99.90;;;;;;6070038;23;20021;-87
2022/02/05 04:35:53;;;;;;;7.88;1.73;;;2.70;99.90;;;;;;6096650;23;20010;-87
2022/02/05 04:38:21;;;;;;;12.77;2.47;;;2.80;99.90;;;;;;6072651;23;20137;-87
2022/02/05 04:40:54;;;;;;;5.82;2.08;;;2.70;99.90;;;;;;6072169;23;20021;-86
2022/02/05 04:43:44;;;;;;;8.73;2.47;;;2.80;99.90;;;;;;6098397;23;20063;-87
2022/02/05 05:05:16;;;;;;;7.97;2.00;;;2.90;99.90;;;;;;6097409;23;20093;-87
2022/02/05 05:13:15;;;;;;;3.60;1.38;;;3.00;99.90;;;;;;6099170;23;20073;-87
2022/02/05 05:21:07;;;;;;;10.77;2.70;;;2.90;99.90;;;;;;6103495;23;20489;-87
2022/02/05 05:23:32;;;;;;;12.50;2.75;;;2.90;99.90;;;;;;6121162;23;20013;-87
2022/02/05 05:25:58;;;;;;;5.97;2.33;;;2.90;99.90;;;;;;6071370;23;20017;-87
2022/02/05 05:28:23;;;;;;;11.10;2.47;;;2.90;99.90;;;;;;6071949;23;20347;-87
2022/02/05 05:30:49;;;;;;;6.78;1.98;;;2.80;99.90;;;;;;6073183;23;20017;-87
2022/02/05 05:33:14;;;;;;;10.40;1.48;;;2.80;99.90;;;;;;6094814;23;20338;-87
2022/02/05 05:35:40;;;;;;;14.85;3.47;;;2.80;99.90;;;;;;6069962;23;22695;-88
2022/02/05 05:38:06;;;;;;;1.58;1.00;;;2.70;99.90;;;;;;6072571;23;20029;-87
2022/02/05 05:40:32;;;;;;;6.68;3.00;;;2.70;99.90;;;;;;6071207;23;20013;-87
2022/02/05 05:43:03;;;;;;;10.18;2.47;;;2.70;99.90;;;;;;6071399;23;20760;-87
2022/02/05 05:48:05;;;;;;;10.00;2.17;;;2.60;99.90;;;;;;6095679;23;20021;-87
2022/02/05 05:53:10;;;;;;;12.32;2.60;;;2.60;99.90;;;;;;6096832;23;20018;-87
2022/02/05 05:55:36;;;;;;;10.40;2.75;;;2.60;99.90;;;;;;6072303;23;20013;-86
2022/02/05 05:58:02;;;;;;;4.57;1.92;;;2.60;99.90;;;;;;6072093;23;20510;-87
2022/02/05 06:00:27;;;;;;;7.30;2.03;;;2.70;99.90;;;;;;6070453;23;20025;-87
2022/02/05 06:02:53;;;;;;;19.40;4.28;;;2.70;99.90;;;;;;6072310;23;20478;-87
2022/02/05 06:05:21;;;;;;;7.78;2.13;;;2.70;99.90;;;;;;6074458;23;20108;-89
2022/02/05 06:07:47;;;;;;;5.30;1.90;;;2.70;99.90;;;;;;6070908;23;20017;-87
2022/02/05 06:10:12;;;;;;;9.30;3.35;;;2.70;99.90;;;;;;6072252;23;20161;-88
2022/02/05 06:12:38;;;;;;;12.82;2.70;;;2.70;99.90;;;;;;6070100;23;20014;-88
2022/02/05 06:15:07;;;;;;;3.15;1.10;;;2.70;99.90;;;;;;6058150;23;20018;-88
2022/02/05 06:17:32;;;;;;;4.80;1.25;;;2.80;99.90;;;;;;6095523;23;20010;-88
2022/02/05 06:19:58;;;;;;;13.23;2.55;;;2.90;99.90;;;;;;6070946;23;20394;-88
2022/02/05 06:22:24;;;;;;;7.72;2.60;;;2.90;99.90;;;;;;6070729;23;20013;-88
2022/02/05 06:24:49;;;;;;;4.97;2.22;;;2.90;99.90;;;;;;6073589;23;20028;-88
2022/02/05 06:27:15;;;;;;;8.80;1.85;;;2.90;99.90;;;;;;6076197;23;20009;-88
2022/02/05 06:29:44;;;;;;;5.38;1.70;;;2.90;99.90;;;;;;6077749;23;20033;-88
2022/02/05 06:32:11;;;;;;;5.55;1.73;;;2.90;99.90;;;;;;6104099;23;20037;-87
2022/02/05 06:34:36;;;;;;;9.05;3.13;;;2.90;99.90;;;;;;6077769;23;20014;-88
2022/02/05 06:37:10;;;;;;;3.80;1.95;;;2.90;99.90;;;;;;6076589;23;20367;-89
2022/02/05 06:39:36;;;;;;;6.15;1.85;;;2.90;99.90;;;;;;6078586;23;20068;-88
2022/02/05 06:42:02;;;;;;;8.88;1.77;;;2.90;99.90;;;;;;6075414;23;20064;-88
2022/02/05 06:44:29;;;;;;;2.92;2.15;;;2.90;99.90;;;;;;6077675;23;20006;-88
2022/02/05 06:46:55;;;;;;;2.45;1.10;;;3.00;99.90;;;;;;6078173;23;20132;-88
2022/02/05 06:49:25;;;;;;;4.53;2.58;;;3.00;99.90;;;;;;6097108;23;20029;-88
2022/02/05 06:51:51;;;;;;;2.58;2.05;;;3.00;99.90;;;;;;6077656;23;20355;-88
2022/02/05 06:54:18;;;;;;;2.53;1.48;;;3.00;99.90;;;;;;6067131;23;20010;-88
2022/02/05 06:56:43;;;;;;;5.22;2.20;;;3.00;99.90;;;;;;6126448;23;20013;-88
2022/02/05 06:59:10;;;;;;;6.65;2.65;;;3.00;99.90;;;;;;6077661;23;20068;-88
2022/02/05 07:01:37;;;;;;;8.05;2.80;;;3.00;99.90;;;;;;6077099;23;20013;-87
2022/02/05 07:04:04;;;;;;;5.47;1.98;;;3.00;99.90;;;;;;6079867;23;20013;-88
2022/02/05 07:06:31;;;;;;;7.85;3.38;;;3.00;99.90;;;;;;6074647;23;20022;-88
2022/02/05 07:08:56;;;;;;;7.50;3.17;;;2.90;99.90;;;;;;6076561;23;20020;-89
2022/02/05 07:11:22;;;;;;;3.83;2.03;;;3.00;99.90;;;;;;6078410;23;20009;-88
2022/02/05 07:13:50;;;;;;;5.43;2.20;;;2.90;99.90;;;;;;6068488;23;20028;-89
2022/02/05 07:16:24;;;;;;;9.48;2.65;;;3.00;99.90;;;;;;6078297;23;20325;-88
2022/02/05 07:19:09;;;;;;;14.05;3.25;;;3.10;99.90;;;;;;6077760;23;20029;-89
2022/02/05 07:21:39;;;;;;;7.47;1.95;;;3.10;99.90;;;;;;6080752;23;20064;-89
2022/02/05 07:29:16;;;;;;;10.02;2.78;;;3.10;99.90;;;;;;6103390;23;20377;-87
2022/02/05 07:31:43;;;;;;;4.47;1.73;;;3.10;99.90;;;;;;6072771;23;20013;-86
2022/02/05 07:34:08;;;;;;;4.78;2.05;;;3.10;99.90;;;;;;6074241;23;20013;-87
2022/02/05 07:36:34;;;;;;;5.80;2.00;;;3.20;99.90;;;;;;6074449;23;20414;-87
2022/02/05 07:38:59;;;;;;;7.80;2.00;;;3.20;99.90;;;;;;6096642;23;20009;-86
2022/02/05 07:41:25;;;;;;;10.25;2.83;;;3.10;99.90;;;;;;6074063;23;20014;-85
2022/02/05 07:43:51;;;;;;;7.32;2.20;;;3.10;99.90;;;;;;6073520;23;20013;-85
2022/02/05 07:46:16;;;;;;;6.95;2.60;;;3.10;99.90;;;;;;6077971;23;20024;-85
2022/02/05 07:48:42;;;;;;;6.80;1.75;;;3.10;99.90;;;;;;6072862;23;20033;-86
2022/02/05 07:51:08;;;;;;;4.20;2.05;;;3.10;99.90;;;;;;6051387;23;20017;-85
2022/02/05 07:53:34;;;;;;;6.75;1.67;;;3.10;99.90;;;;;;6097253;23;20021;-87
2022/02/05 07:56:00;;;;;;;5.20;2.00;;;3.10;99.90;;;;;;6097041;23;20012;-88
2022/02/05 07:58:26;;;;;;;8.77;1.92;;;3.20;99.90;;;;;;6092675;23;20002;-85
2022/02/05 08:00:52;;;;;;;2.80;1.83;;;3.20;99.90;;;;;;6064721;23;20009;-85
2022/02/05 08:03:18;;;;;;;6.88;2.30;;;3.10;99.90;;;;;;6072078;23;20028;-85
2022/02/05 08:05:43;;;;;;;5.60;2.00;;;3.20;99.90;;;;;;6072752;23;20451;-87
2022/02/05 08:08:13;;;;;;;14.68;2.05;;;3.20;99.90;;;;;;6072867;23;20010;-88
2022/02/05 08:10:47;;;;;;;5.93;2.53;;;3.20;99.90;;;;;;6073124;23;20045;-88
2022/02/05 08:13:13;;;;;;;4.70;1.88;;;3.20;99.90;;;;;;6075921;23;20328;-88
2022/02/05 08:15:39;;;;;;;7.38;2.33;;;3.20;99.90;;;;;;6080949;23;20016;-87
2022/02/05 08:18:04;;;;;;;11.88;2.30;;;3.10;99.90;;;;;;6072356;23;20010;-87
2022/02/05 08:20:30;;;;;;;2.25;1.35;;;3.10;99.90;;;;;;6070869;23;20013;-88
2022/02/05 08:22:56;;;;;;;9.57;3.22;;;3.10;99.90;;;;;;6064753;23;20024;-88
2022/02/05 08:25:21;;;;;;;7.32;2.03;;;3.10;99.90;;;;;;6048051;23;20009;-85
2022/02/05 08:27:47;;;;;;;6.40;2.42;;;3.10;99.90;;;;;;6072251;23;20021;-88
2022/02/05 08:30:13;;;;;;;11.20;2.45;;;3.10;99.90;;;;;;6072921;23;20207;-88
2022/02/05 08:32:40;;;;;;;5.30;2.35;;;3.20;99.90;;;;;;6072976;23;20014;-88
2022/02/05 08:35:06;;;;;;;5.88;1.73;;;3.30;99.90;;;;;;6072088;23;20506;-88
2022/02/05 08:37:38;;;;;;;4.88;2.35;;;3.30;99.90;;;;;;6071459;23;20020;-88
2022/02/05 08:40:04;;;;;;;14.80;2.67;;;3.30;99.90;;;;;;6071564;23;20508;-87
2022/02/05 08:42:30;;;;;;;10.05;2.95;;;3.50;99.90;;;;;;6070604;23;20366;-89
2022/02/05 08:44:55;;;;;;;3.60;1.58;;;3.60;99.90;;;;;;6066586;23;20006;-89
2022/02/05 08:47:21;;;;;;;6.05;1.13;;;3.70;99.90;;;;;;6066615;23;20053;-89
2022/02/05 08:49:46;;;;;;;8.77;3.40;;;3.80;99.90;;;;;;6066205;23;20020;-90
2022/02/05 08:52:12;;;;;;;3.72;1.20;;;3.90;99.90;;;;;;6062793;23;20036;-90
2022/02/05 08:54:41;;;;;;;7.75;2.88;;;4.00;99.90;;;;;;6055954;23;20332;-90
2022/02/05 08:57:13;;;;;;;6.50;2.55;;;4.10;99.90;;;;;;6094487;23;20320;-91
2022/02/05 08:59:56;;;;;;;5.90;2.13;;;4.00;99.90;;;;;;6068730;23;20017;-91
2022/02/05 09:02:40;;;;;;;9.18;2.25;;;4.10;99.90;;;;;;6044087;23;20474;-90
2022/02/05 09:05:33;;;;;;;3.92;2.13;;;4.10;99.90;;;;;;6059181;23;20010;-90
2022/02/05 09:08:22;;;;;;;5.07;2.78;;;4.30;99.90;;;;;;6081753;23;20010;-91
2022/02/05 09:11:07;;;;;;;9.25;2.50;;;4.40;99.90;;;;;;6084409;23;20725;-91
2022/02/05 09:16:05;;;;;;;8.80;2.20;;;4.40;99.90;;;;;;6091294;23;20014;-91
2022/02/05 09:18:34;;;;;;;6.55;2.30;;;4.60;99.90;;;;;;6059179;23;20465;-91
2022/02/05 09:21:00;;;;;;;8.63;2.72;;;4.40;99.90;;;;;;6046893;23;20084;-88
2022/02/05 09:23:29;;;;;;;5.13;1.55;;;4.60;99.90;;;;;;6041243;23;20009;-89
2022/02/05 09:26:01;;;;;;;7.45;1.95;;;5.00;99.90;;;;;;6069784;23;20450;-89
2022/02/05 09:28:29;;;;;;;6.53;2.83;;;5.00;99.90;;;;;;6074158;23;20498;-89
2022/02/05 09:31:24;;;;;;;11.88;4.15;;;5.10;99.90;;;;;;6059665;23;20012;-89
2022/02/05 09:33:53;;;;;;;5.97;2.92;;;5.10;99.90;;;;;;6105620;23;20465;-89
2022/02/05 09:36:19;;;;;;;3.05;1.45;;;5.10;99.90;;;;;;6036953;23;20005;-87
2022/02/05 09:38:48;;;;;;;9.25;2.60;;;5.20;99.90;;;;;;6048552;23;20044;-89
2022/02/05 09:41:13;;;;;;;8.43;2.10;;;5.40;99.90;;;;;;6075236;23;20018;-89
2022/02/05 09:43:39;;;;;;;10.82;4.30;;;5.20;99.90;;;;;;6096757;23;20015;-89
2022/02/05 09:46:25;;;;;;;13.05;2.05;;;5.40;99.90;;;;;;6062608;23;20405;-89
2022/02/05 09:48:55;;;;;;;3.42;2.20;;;5.40;99.90;;;;;;6083431;23;20017;-89
2022/02/05 09:51:29;;;;;;;6.53;3.03;;;5.50;99.90;;;;;;6058971;23;20350;-89
2022/02/05 09:53:58;;;;;;;6.15;2.70;;;5.60;99.90;;;;;;6050695;23;20043;-89
2022/02/05 09:56:25;;;;;;;7.20;1.92;;;5.60;99.90;;;;;;6071043;23;20076;-89
2022/02/05 09:58:56;;;;;;;8.57;2.70;;;5.80;99.90;;;;;;6071719;23;20553;-89
2022/02/05 10:01:29;;;;;;;8.73;2.30;;;6.00;99.90;;;;;;6072190;23;20489;-89
2022/02/05 10:03:56;;;;;;;9.55;3.00;;;6.20;99.90;;;;;;6073135;23;20006;-90
2022/02/05 10:06:29;;;;;;;10.02;3.13;;;6.20;99.90;;;;;;6073022;23;20017;-89
2022/02/05 10:09:11;;;;;;;10.00;3.63;;;6.20;99.90;;;;;;6059933;23;20303;-90
2022/02/05 10:12:07;;;;;;;6.68;2.67;;;6.30;99.90;;;;;;6066659;23;20100;-89
2022/02/05 10:14:36;;;;;;;7.93;2.03;;;6.40;99.90;;;;;;6077588;23;20006;-91
2022/02/05 10:17:06;;;;;;;15.77;3.78;;;6.50;99.90;;;;;;6043459;23;20012;-91
2022/02/05 10:20:07;;;;;;;7.45;2.75;;;6.40;99.90;;;;;;6058712;23;20029;-90
2022/02/05 10:22:37;;;;;;;13.68;3.65;;;6.40;99.90;;;;;;6018599;23;20006;-90
2022/02/05 10:25:21;;;;;;;2.95;1.92;;;6.40;99.90;;;;;;6036811;23;20019;-90
2022/02/05 10:27:55;;;;;;;13.45;3.10;;;6.60;99.90;;;;;;6023026;23;20022;-91
2022/02/05 10:30:31;;;;;;;5.57;2.30;;;6.70;99.90;;;;;;6047855;23;20009;-91
2022/02/05 10:32:58;;;;;;;8.05;2.22;;;6.70;99.90;;;;;;6068491;23;20018;-92
2022/02/05 10:35:37;;;;;;;5.55;2.10;;;6.80;99.90;;;;;;6114058;23;20025;-91
2022/02/05 10:43:41;;;;;;;9.23;2.63;;;7.10;99.90;;;;;;6072930;23;20106;-90
2022/02/05 10:46:13;;;;;;;9.93;3.00;;;7.20;99.90;;;;;;6090675;23;20010;-89
2022/02/05 10:48:43;;;;;;;10.70;3.17;;;7.20;99.90;;;;;;6049079;23;20046;-90
2022/02/05 10:51:51;;;;;;;2.45;1.20;;;7.20;99.90;;;;;;5989571;23;20011;-89
2022/02/05 10:54:51;;;;;;;5.13;2.05;;;7.40;99.90;;;;;;6077324;23;20469;-89
2022/02/05 10:57:26;;;;;;;3.22;1.40;;;7.80;99.90;;;;;;6077362;23;20010;-88
2022/02/05 11:05:15;;;;;;;5.43;2.15;;;7.80;99.90;;;;;;6055270;23;20441;-90
2022/02/05 11:06:08;;;;;;;8.45;3.65;;;8.10;99.90;;;;;;6128404;23;20063;-90
2022/02/05 11:08:33;;;;;;;8.07;3.10;;;8.10;99.90;;;;;;6070065;23;20092;-89
2022/02/05 11:14:16;;;;;;;6.63;2.95;;;7.80;99.90;;;;;;6104598;23;20032;-89
2022/02/05 11:19:44;;;;;;;8.75;2.03;;;8.20;99.90;;;;;;6109655;23;20567;-88
2022/02/05 11:22:10;;;;;;;18.13;4.05;;;8.40;99.90;;;;;;6074095;23;20312;-89
2022/02/05 11:24:36;;;;;;;7.90;2.97;;;8.40;99.90;;;;;;6071604;23;20002;-88
2022/02/05 11:27:02;;;;;;;5.03;2.45;;;8.60;99.90;;;;;;6072238;23;20029;-88
2022/02/05 11:29:30;;;;;;;5.15;1.85;;;8.40;99.90;;;;;;6072519;23;20055;-88
2022/02/05 11:32:27;;;;;;;8.85;2.58;;;8.50;99.90;;;;;;6071221;23;20359;-88
2022/02/05 11:35:18;;;;;;;2.03;1.30;;;8.30;99.90;;;;;;6073400;23;20017;-89
2022/02/05 11:37:53;;;;;;;8.07;2.20;;;8.50;99.90;;;;;;6074815;23;20361;-88
2022/02/05 11:40:41;;;;;;;6.30;1.95;;;8.60;99.90;;;;;;6059221;23;20356;-89
2022/02/05 11:43:25;;;;;;;5.47;2.17;;;8.70;99.90;;;;;;6121795;23;20060;-89
2022/02/05 11:46:11;;;;;;;7.28;2.33;;;8.70;99.90;;;;;;6092588;23;20092;-88
2022/02/05 11:48:45;;;;;;;2.53;1.63;;;8.70;99.90;;;;;;6055364;23;20024;-89
2022/02/05 11:51:28;;;;;;;11.60;1.75;;;8.60;99.90;;;;;;6110979;23;20001;-89
2022/02/05 11:53:57;;;;;;;3.38;1.27;;;8.60;99.90;;;;;;6096617;23;20056;-89
2022/02/05 11:56:47;;;;;;;10.15;1.95;;;8.60;99.90;;;;;;6106701;23;20101;-89
2022/02/05 12:00:02;;;;;;;6.30;2.10;;;8.40;99.90;;;;;;6047506;23;20756;-88
2022/02/05 12:03:00;;;;;;;9.30;1.65;;;8.30;99.90;;;;;;6112792;23;20014;-89
2022/02/05 12:05:31;;;;;;;7.45;1.67;;;8.30;99.90;;;;;;6065168;23;20065;-89
2022/02/05 12:08:24;;;;;;;5.18;1.67;;;8.30;99.90;;;;;;6033351;23;20454;-88
2022/02/05 12:10:51;;;;;;;9.48;2.25;;;8.30;99.90;;;;;;6091188;23;20030;-89
2022/02/05 12:13:35;;;;;;;5.72;1.92;;;8.40;99.90;;;;;;6063597;23;20104;-88
2022/02/05 12:16:09;;;;;;;3.08;1.27;;;8.30;99.90;;;;;;6093651;23;20104;-88
2022/02/05 12:19:17;;;;;;;7.38;2.05;;;8.30;99.90;;;;;;6130196;23;20621;-88
2022/02/05 12:22:09;;;;;;;5.82;1.70;;;8.20;99.90;;;;;;6092822;23;20010;-88
2022/02/05 12:25:10;;;;;;;14.80;1.65;;;8.20;99.90;;;;;;6076779;23;20028;-88
2022/02/05 12:27:37;;;;;;;9.60;1.45;;;8.10;99.90;;;;;;6097768;23;20023;-89
2022/02/05 12:30:27;;;;;;;5.80;1.92;;;8.20;99.90;;;;;;6053570;23;20014;-88
2022/02/05 12:32:58;;;;;;;4.18;1.90;;;8.20;99.90;;;;;;6117694;23;20017;-88
2022/02/05 12:35:23;;;;;;;9.18;1.27;;;8.20;99.90;;;;;;6057790;23;20036;-88
2022/02/05 12:37:49;;;;;;;4.47;2.03;;;8.30;99.90;;;;;;6070273;23;20350;-89
2022/02/05 12:40:14;;;;;;;7.18;1.70;;;8.30;99.90;;;;;;6071341;23;20005;-88
2022/02/05 12:42:43;;;;;;;4.78;1.42;;;8.30;99.90;;;;;;6075038;23;20235;-88
2022/02/05 12:45:10;;;;;;;3.95;1.48;;;8.10;99.90;;;;;;6076800;23;20010;-89
2022/02/05 12:47:41;;;;;;;7.82;2.17;;;8.10;99.90;;;;;;6072286;23;20017;-89
2022/02/05 12:50:11;;;;;;;5.25;1.27;;;8.10;99.90;;;;;;6100401;23;20014;-89
2022/02/05 12:52:37;;;;;;;3.83;0.88;;;8.10;99.90;;;;;;6074697;23;20010;-89
2022/02/05 12:55:44;;;;;;;3.78;1.02;;;8.10;99.90;;;;;;6059626;23;20009;-89
2022/02/05 12:58:10;;;;;;;6.00;1.60;;;8.20;99.90;;;;;;6068149;23;20014;-89
2022/02/05 13:00:36;;;;;;;5.97;1.23;;;8.20;99.90;;;;;;6076300;23;20013;-90
2022/02/05 13:03:01;;;;;;;7.55;2.05;;;8.40;99.90;;;;;;6047935;23;20115;-89
2022/02/05 13:05:34;;;;;;;6.57;1.92;;;8.40;99.90;;;;;;6074119;23;20462;-89
2022/02/05 13:08:00;;;;;;;8.90;1.38;;;8.50;99.90;;;;;;6060951;23;20017;-90
2022/02/05 13:10:41;;;;;;;3.33;1.27;;;8.70;99.90;;;;;;6098166;23;20095;-89
2022/02/05 13:13:07;;;;;;;6.07;1.63;;;8.80;99.90;;;;;;6098186;23;20594;-88
2022/02/05 13:15:33;;;;;;;7.40;2.03;;;8.90;99.90;;;;;;6072209;23;20026;-88
2022/02/05 13:28:35;;;;;;;3.80;1.38;;;8.90;99.90;;;;;;6120845;23;20013;-88
2022/02/05 13:39:50;;;;;;;3.45;0.93;;;8.70;99.90;;;;;;6119841;23;20073;-88
2022/02/05 13:42:27;;;;;;;4.63;1.02;;;8.60;99.90;;;;;;6100473;23;20009;-88
2022/02/05 13:45:03;;;;;;;7.15;1.65;;;8.60;99.90;;;;;;6097919;23;20370;-88
2022/02/05 13:47:48;;;;;;;1.52;0.70;;;8.50;99.90;;;;;;6119040;23;20013;-88
2022/02/05 13:50:24;;;;;;;3.72;0.75;;;8.40;99.90;;;;;;6097474;23;20064;-88
2022/02/05 13:52:53;;;;;;;;;;;8.40;99.90;;;;;;6085591;23;20029;-89
2022/02/05 13:55:23;;;;;;;6.90;0.80;;;8.30;99.90;;;;;;6078491;23;19931;-88
2022/02/05 13:58:07;;;;;;;7.05;1.50;;;8.30;99.90;;;;;;6076178;23;20021;-88
2022/02/05 14:00:52;;;;;;;1.35;0.80;;;8.30;99.90;;;;;;6093770;23;20021;-88
2022/02/05 14:03:32;;;;;;;3.08;0.88;;;8.20;99.90;;;;;;6071693;23;20013;-88
2022/02/05 14:05:59;;;;;;;5.40;1.17;;;8.30;99.90;;;;;;6073358;23;20462;-89
2022/02/05 14:09:05;;;;;;;;;;;;;;;;;;;;;
2022/02/05 14:11:53;;;;;;;2.40;0.90;;;8.30;99.90;;;;;;6108376;23;20617;-88
2022/02/05 14:14:55;;;;;;;;;;;;;;;;;;;;;
2022/02/05 14:20:20;;;;;;;12.10;0.95;;;8.10;99.90;;;;;;6105550;23;20501;-87
2022/02/05 14:22:50;;;;;;;4.43;1.00;;;8.00;99.90;;;;;;6071664;23;20395;-87
2022/02/05 14:25:33;;;;;;;8.63;1.83;;;8.00;99.90;;;;;;6022531;23;20002;-87
2022/02/05 14:28:17;;;;;;;1.05;0.60;;;7.90;99.90;;;;;;6072557;23;20539;-88
2022/02/05 14:31:00;;;;;;;5.50;1.08;;;7.80;99.90;;;;;;6058281;23;20081;-88
2022/02/05 14:34:15;;;;;;;4.15;1.02;;;7.90;99.90;;;;;;6060941;23;20092;-87
2022/02/05 14:42:43;;;;;;;1.25;0.95;;;7.80;99.90;;;;;;6106266;23;20071;-89
2022/02/05 14:45:34;;;;;;;5.00;1.52;;;7.90;99.90;;;;;;6030380;23;20014;-89
2022/02/05 14:48:29;;;;;;;3.22;1.00;;;7.80;99.90;;;;;;6078807;23;20104;-89
2022/02/05 14:51:04;;;;;;;4.55;1.13;;;7.90;99.90;;;;;;6038939;23;20052;-89
2022/02/05 14:54:02;;;;;;;23.35;2.33;;;7.80;99.90;;;;;;6041808;23;20395;-88
2022/02/05 14:56:29;;;;;;;3.15;0.85;;;7.70;99.90;;;;;;6067138;23;20010;-88
2022/02/05 14:59:09;;;;;;;6.88;1.42;;;7.60;99.90;;;;;;6022264;23;20090;-89
2022/02/05 15:01:58;;;;;;;;;;;;;;;;;;;;;
2022/02/05 15:04:50;;;;;;;4.35;1.90;;;7.60;99.90;;;;;;6051550;23;20434;-88
2022/02/05 15:07:47;;;;;;;2.25;1.17;;;7.60;99.90;;;;;;6052026;23;20028;-89
2022/02/05 15:10:39;;;;;;;;;;;;;;;;;;;;;
2022/02/05 15:13:31;;;;;;;3.63;0.40;;;7.50;99.90;;;;;;6053921;23;20501;-89
2022/02/05 15:16:01;;;;;;;5.43;1.17;;;7.50;99.90;;;;;;6026674;23;20032;-89
2022/02/05 15:22:00;;;;;;;3.47;1.05;;;7.40;99.90;;;;;;5994355;23;20368;-89
2022/02/05 15:24:47;;;;;;;5.35;1.23;;;7.40;99.90;;;;;;5950803;23;20349;-89
2022/02/05 15:27:43;;;;;;;4.68;1.38;;;7.40;99.90;;;;;;5976557;23;20026;-89
2022/02/05 15:30:20;;;;;;;7.75;0.95;;;7.30;99.90;;;;;;6051151;23;20380;-89
2022/02/05 15:32:49;;;;;;;4.72;1.17;;;7.20;99.90;;;;;;6045057;23;20025;-89
2022/02/05 15:35:28;;;;;;;8.13;1.55;;;7.20;99.90;;;;;;6048931;23;20428;-89
2022/02/05 15:44:58;;;;;;;;;;;;;;;;;;;;;
2022/02/05 15:47:54;;;;;;;3.70;1.13;;;7.00;99.90;;;;;;6036949;23;20511;-89
2022/02/05 15:51:06;;;;;;;4.03;1.27;;;7.00;99.90;;;;;;6032431;23;20113;-89
2022/02/05 15:59:53;;;;;;;4.60;1.45;;;6.90;99.90;;;;;;6067619;23;20044;-87
2022/02/05 16:02:19;;;;;;;5.63;1.10;;;6.80;99.90;;;;;;6096650;23;20443;-86
2022/02/05 16:04:45;;;;;;;4.50;1.00;;;6.80;99.90;;;;;;6071093;23;20167;-86
2022/02/05 16:07:10;;;;;;;4.50;1.00;;;6.80;99.90;;;;;;6071240;23;20021;-87
2022/02/05 16:09:36;;;;;;;1.23;0.65;;;6.70;99.90;;;;;;6070732;23;20017;-87
2022/02/05 16:12:01;;;;;;;6.60;1.35;;;6.70;99.90;;;;;;6069486;23;20013;-87
2022/02/05 16:14:27;;;;;;;4.32;0.93;;;6.80;99.90;;;;;;6071033;23;20179;-87
2022/02/05 16:16:53;;;;;;;2.53;0.98;;;6.70;99.90;;;;;;6070172;23;20051;-86
2022/02/05 16:19:18;;;;;;;6.35;1.67;;;6.70;99.90;;;;;;6071252;23;20488;-84
2022/02/05 16:21:44;;;;;;;7.00;1.58;;;6.60;99.90;;;;;;6071514;23;20079;-84
2022/02/05 16:24:10;;;;;;;6.47;0.80;;;6.60;99.90;;;;;;6071372;23;20648;-85
2022/02/05 16:26:36;;;;;;;4.22;1.58;;;6.60;99.90;;;;;;6071401;23;20320;-84
2022/02/05 16:29:02;;;;;;;3.78;0.82;;;6.60;99.90;;;;;;6095177;23;20458;-84
2022/02/05 16:31:27;;;;;;;2.10;0.57;;;6.60;99.90;;;;;;6071224;23;20009;-85
2022/02/05 16:33:56;;;;;;;4.18;0.85;;;6.50;99.90;;;;;;6094041;23;20018;-85
2022/02/05 16:36:27;;;;;;;5.05;2.10;;;6.50;99.90;;;;;;6072597;23;20018;-85
2022/02/05 16:38:57;;;;;;;3.97;0.82;;;6.50;99.90;;;;;;6074266;23;20091;-85